sensor_id;sensor_type;location;lat;lon;timestamp;P1;durP1;ratioP1;P2;durP2;ratioP2
3677;SDS011;1855;50.934;6.958;2022-09-09T00:00:24;1.87;;;1.00;;
3677;SDS011;1855;50.934;6.958;2022-09-09T00:02:54;2.47;;;0.90;;
3677;SDS011;1855;50.934;6.958;2022-09-09T00:05:28;3.22;;;1.10;;
3677;SDS011;1855;50.934;6.958;2022-09-09T00:08:03;2.80;;;0.98;;
3677;SDS011;1855;50.934;6.958;2022-09-09T00:10:31;1.80;;;0.70;;
3677;SDS011;1855;50.934;6.958;2022-09-09T00:13:06;1.50;;;0.70;;
3677;SDS011;1855;50.934;6.958;2022-09-09T00:15:45;2.50;;;0.93;;
3677;SDS011;1855;50.934;6.958;2022-09-09T00:18:22;2.00;;;0.90;;
3677;SDS011;1855;50.934;6.958;2022-09-09T00:20:55;3.55;;;1.10;;
3677;SDS011;1855;50.934;6.958;2022-09-09T00:23:30;2.00;;;1.10;;
3677;SDS011;1855;50.934;6.958;2022-09-09T00:26:01;3.00;;;1.10;;
3677;SDS011;1855;50.934;6.958;2022-09-09T00:28:33;4.32;;;1.20;;
3677;SDS011;1855;50.934;6.958;2022-09-09T00:31:10;3.13;;;0.90;;
3677;SDS011;1855;50.934;6.958;2022-09-09T00:33:39;2.20;;;1.10;;
3677;SDS011;1855;50.934;6.958;2022-09-09T00:36:09;1.70;;;1.08;;
3677;SDS011;1855;50.934;6.958;2022-09-09T00:38:41;2.78;;;1.10;;
3677;SDS011;1855;50.934;6.958;2022-09-09T00:41:11;2.10;;;0.90;;
3677;SDS011;1855;50.934;6.958;2022-09-09T00:43:46;1.67;;;0.82;;
3677;SDS011;1855;50.934;6.958;2022-09-09T00:46:27;2.20;;;0.90;;
3677;SDS011;1855;50.934;6.958;2022-09-09T00:49:19;1.70;;;0.80;;
3677;SDS011;1855;50.934;6.958;2022-09-09T00:51:58;1.58;;;0.80;;
3677;SDS011;1855;50.934;6.958;2022-09-09T00:54:33;1.40;;;1.00;;
3677;SDS011;1855;50.934;6.958;2022-09-09T00:57:21;2.00;;;0.90;;
3677;SDS011;1855;50.934;6.958;2022-09-09T00:59:52;1.90;;;0.80;;
3677;SDS011;1855;50.934;6.958;2022-09-09T01:02:28;1.80;;;0.70;;
3677;SDS011;1855;50.934;6.958;2022-09-09T01:05:02;1.30;;;0.65;;
3677;SDS011;1855;50.934;6.958;2022-09-09T01:07:33;1.90;;;0.90;;
3677;SDS011;1855;50.934;6.958;2022-09-09T01:10:03;1.70;;;0.90;;
3677;SDS011;1855;50.934;6.958;2022-09-09T01:12:35;2.10;;;1.00;;
3677;SDS011;1855;50.934;6.958;2022-09-09T01:15:10;2.20;;;0.80;;
3677;SDS011;1855;50.934;6.958;2022-09-09T01:17:44;1.77;;;0.90;;
3677;SDS011;1855;50.934;6.958;2022-09-09T01:20:17;1.80;;;0.70;;
3677;SDS011;1855;50.934;6.958;2022-09-09T01:22:50;1.37;;;0.70;;
3677;SDS011;1855;50.934;6.958;2022-09-09T01:28:01;1.73;;;1.00;;
3677;SDS011;1855;50.934;6.958;2022-09-09T01:30:29;1.50;;;0.90;;
3677;SDS011;1855;50.934;6.958;2022-09-09T01:32:58;2.20;;;1.20;;
3677;SDS011;1855;50.934;6.958;2022-09-09T01:35:34;1.35;;;0.95;;
3677;SDS011;1855;50.934;6.958;2022-09-09T01:38:06;2.58;;;1.10;;
3677;SDS011;1855;50.934;6.958;2022-09-09T01:40:33;2.27;;;1.07;;
3677;SDS011;1855;50.934;6.958;2022-09-09T01:43:02;2.20;;;1.10;;
3677;SDS011;1855;50.934;6.958;2022-09-09T01:45:30;2.30;;;1.17;;
3677;SDS011;1855;50.934;6.958;2022-09-09T01:47:57;3.00;;;1.10;;
3677;SDS011;1855;50.934;6.958;2022-09-09T01:50:25;1.47;;;0.80;;
3677;SDS011;1855;50.934;6.958;2022-09-09T01:52:52;3.13;;;1.13;;
3677;SDS011;1855;50.934;6.958;2022-09-09T01:55:23;2.38;;;1.00;;
3677;SDS011;1855;50.934;6.958;2022-09-09T01:57:56;1.48;;;0.90;;
3677;SDS011;1855;50.934;6.958;2022-09-09T02:00:35;2.55;;;1.10;;
3677;SDS011;1855;50.934;6.958;2022-09-09T02:03:08;1.85;;;1.13;;
3677;SDS011;1855;50.934;6.958;2022-09-09T02:05:45;1.80;;;1.02;;
3677;SDS011;1855;50.934;6.958;2022-09-09T02:08:17;2.35;;;1.05;;
3677;SDS011;1855;50.934;6.958;2022-09-09T02:10:50;1.90;;;0.93;;
3677;SDS011;1855;50.934;6.958;2022-09-09T02:13:23;1.88;;;1.05;;
3677;SDS011;1855;50.934;6.958;2022-09-09T02:15:52;3.58;;;1.50;;
3677;SDS011;1855;50.934;6.958;2022-09-09T02:18:24;2.47;;;1.13;;
3677;SDS011;1855;50.934;6.958;2022-09-09T02:20:54;3.08;;;1.20;;
3677;SDS011;1855;50.934;6.958;2022-09-09T02:23:22;2.80;;;1.00;;
3677;SDS011;1855;50.934;6.958;2022-09-09T02:25:50;3.10;;;1.10;;
3677;SDS011;1855;50.934;6.958;2022-09-09T02:28:19;4.13;;;1.27;;
3677;SDS011;1855;50.934;6.958;2022-09-09T02:30:50;2.35;;;1.20;;
3677;SDS011;1855;50.934;6.958;2022-09-09T02:33:20;2.50;;;0.95;;
3677;SDS011;1855;50.934;6.958;2022-09-09T02:35:50;3.08;;;1.30;;
3677;SDS011;1855;50.934;6.958;2022-09-09T02:38:18;4.22;;;1.40;;
3677;SDS011;1855;50.934;6.958;2022-09-09T02:40:48;2.27;;;1.13;;
3677;SDS011;1855;50.934;6.958;2022-09-09T02:43:15;2.90;;;1.55;;
3677;SDS011;1855;50.934;6.958;2022-09-09T02:45:44;3.03;;;1.40;;
3677;SDS011;1855;50.934;6.958;2022-09-09T02:48:20;2.88;;;1.35;;
3677;SDS011;1855;50.934;6.958;2022-09-09T02:50:57;2.90;;;1.30;;
3677;SDS011;1855;50.934;6.958;2022-09-09T02:53:32;2.80;;;1.23;;
3677;SDS011;1855;50.934;6.958;2022-09-09T02:56:08;2.50;;;1.30;;
3677;SDS011;1855;50.934;6.958;2022-09-09T02:58:39;2.63;;;1.15;;
3677;SDS011;1855;50.934;6.958;2022-09-09T03:01:07;3.20;;;1.48;;
3677;SDS011;1855;50.934;6.958;2022-09-09T03:03:35;2.60;;;1.00;;
3677;SDS011;1855;50.934;6.958;2022-09-09T03:06:02;3.47;;;1.70;;
3677;SDS011;1855;50.934;6.958;2022-09-09T03:08:30;3.67;;;1.40;;
3677;SDS011;1855;50.934;6.958;2022-09-09T03:10:58;2.70;;;1.20;;
3677;SDS011;1855;50.934;6.958;2022-09-09T03:13:26;2.60;;;1.30;;
3677;SDS011;1855;50.934;6.958;2022-09-09T03:15:53;2.90;;;1.35;;
3677;SDS011;1855;50.934;6.958;2022-09-09T03:18:20;2.85;;;1.50;;
3677;SDS011;1855;50.934;6.958;2022-09-09T03:20:49;3.53;;;1.30;;
3677;SDS011;1855;50.934;6.958;2022-09-09T03:23:17;3.58;;;1.40;;
3677;SDS011;1855;50.934;6.958;2022-09-09T03:25:47;3.55;;;1.40;;
3677;SDS011;1855;50.934;6.958;2022-09-09T03:28:14;2.80;;;1.65;;
3677;SDS011;1855;50.934;6.958;2022-09-09T03:30:41;3.10;;;1.33;;
3677;SDS011;1855;50.934;6.958;2022-09-09T03:33:08;3.70;;;1.50;;
3677;SDS011;1855;50.934;6.958;2022-09-09T03:35:35;2.95;;;1.65;;
3677;SDS011;1855;50.934;6.958;2022-09-09T03:38:03;3.90;;;1.30;;
3677;SDS011;1855;50.934;6.958;2022-09-09T03:40:30;4.07;;;1.30;;
3677;SDS011;1855;50.934;6.958;2022-09-09T03:42:57;5.47;;;1.90;;
3677;SDS011;1855;50.934;6.958;2022-09-09T03:45:24;3.67;;;1.40;;
3677;SDS011;1855;50.934;6.958;2022-09-09T03:47:51;4.43;;;1.50;;
3677;SDS011;1855;50.934;6.958;2022-09-09T03:50:18;4.57;;;1.50;;
3677;SDS011;1855;50.934;6.958;2022-09-09T03:52:44;3.87;;;1.33;;
3677;SDS011;1855;50.934;6.958;2022-09-09T03:55:13;3.37;;;1.30;;
3677;SDS011;1855;50.934;6.958;2022-09-09T03:57:39;4.25;;;1.73;;
3677;SDS011;1855;50.934;6.958;2022-09-09T04:00:07;4.32;;;1.40;;
3677;SDS011;1855;50.934;6.958;2022-09-09T04:02:35;3.43;;;1.60;;
3677;SDS011;1855;50.934;6.958;2022-09-09T04:05:01;2.78;;;1.30;;
3677;SDS011;1855;50.934;6.958;2022-09-09T04:07:28;3.80;;;1.75;;
3677;SDS011;1855;50.934;6.958;2022-09-09T04:09:55;3.35;;;1.42;;
3677;SDS011;1855;50.934;6.958;2022-09-09T04:12:24;2.65;;;1.40;;
3677;SDS011;1855;50.934;6.958;2022-09-09T04:14:50;2.83;;;1.23;;
3677;SDS011;1855;50.934;6.958;2022-09-09T04:17:17;3.83;;;1.40;;
3677;SDS011;1855;50.934;6.958;2022-09-09T04:19:44;2.90;;;1.50;;
3677;SDS011;1855;50.934;6.958;2022-09-09T04:22:11;2.60;;;1.33;;
3677;SDS011;1855;50.934;6.958;2022-09-09T04:24:38;3.38;;;1.30;;
3677;SDS011;1855;50.934;6.958;2022-09-09T04:27:05;3.80;;;1.35;;
3677;SDS011;1855;50.934;6.958;2022-09-09T04:29:33;3.28;;;1.50;;
3677;SDS011;1855;50.934;6.958;2022-09-09T04:32:00;5.47;;;1.88;;
3677;SDS011;1855;50.934;6.958;2022-09-09T04:34:27;3.95;;;1.70;;
3677;SDS011;1855;50.934;6.958;2022-09-09T04:36:54;2.92;;;1.40;;
3677;SDS011;1855;50.934;6.958;2022-09-09T04:39:21;3.17;;;1.50;;
3677;SDS011;1855;50.934;6.958;2022-09-09T04:41:48;5.50;;;1.63;;
3677;SDS011;1855;50.934;6.958;2022-09-09T04:44:15;3.90;;;1.90;;
3677;SDS011;1855;50.934;6.958;2022-09-09T04:46:43;5.93;;;2.00;;
3677;SDS011;1855;50.934;6.958;2022-09-09T04:49:10;4.22;;;1.70;;
3677;SDS011;1855;50.934;6.958;2022-09-09T04:51:37;4.47;;;1.90;;
3677;SDS011;1855;50.934;6.958;2022-09-09T04:54:04;2.72;;;1.55;;
3677;SDS011;1855;50.934;6.958;2022-09-09T04:56:30;4.38;;;1.70;;
3677;SDS011;1855;50.934;6.958;2022-09-09T04:58:57;3.88;;;1.80;;
3677;SDS011;1855;50.934;6.958;2022-09-09T05:01:24;3.78;;;1.83;;
3677;SDS011;1855;50.934;6.958;2022-09-09T05:03:53;4.35;;;1.88;;
3677;SDS011;1855;50.934;6.958;2022-09-09T05:06:20;3.20;;;1.45;;
3677;SDS011;1855;50.934;6.958;2022-09-09T05:08:48;3.55;;;1.70;;
3677;SDS011;1855;50.934;6.958;2022-09-09T05:11:16;3.38;;;1.60;;
3677;SDS011;1855;50.934;6.958;2022-09-09T05:13:44;4.95;;;2.00;;
3677;SDS011;1855;50.934;6.958;2022-09-09T05:16:11;4.82;;;1.45;;
3677;SDS011;1855;50.934;6.958;2022-09-09T05:18:38;3.17;;;1.33;;
3677;SDS011;1855;50.934;6.958;2022-09-09T05:21:06;2.35;;;1.30;;
3677;SDS011;1855;50.934;6.958;2022-09-09T05:23:34;5.57;;;1.60;;
3677;SDS011;1855;50.934;6.958;2022-09-09T05:26:02;5.33;;;2.10;;
3677;SDS011;1855;50.934;6.958;2022-09-09T05:28:29;5.60;;;2.20;;
3677;SDS011;1855;50.934;6.958;2022-09-09T05:30:56;4.43;;;2.03;;
3677;SDS011;1855;50.934;6.958;2022-09-09T05:33:25;4.30;;;1.70;;
3677;SDS011;1855;50.934;6.958;2022-09-09T05:35:56;4.65;;;1.70;;
3677;SDS011;1855;50.934;6.958;2022-09-09T05:38:25;4.30;;;1.90;;
3677;SDS011;1855;50.934;6.958;2022-09-09T05:40:52;2.60;;;1.60;;
3677;SDS011;1855;50.934;6.958;2022-09-09T05:43:19;3.85;;;1.58;;
3677;SDS011;1855;50.934;6.958;2022-09-09T05:45:46;3.28;;;1.60;;
3677;SDS011;1855;50.934;6.958;2022-09-09T05:48:13;4.90;;;1.70;;
3677;SDS011;1855;50.934;6.958;2022-09-09T05:50:41;5.75;;;2.00;;
3677;SDS011;1855;50.934;6.958;2022-09-09T05:53:10;4.53;;;1.65;;
3677;SDS011;1855;50.934;6.958;2022-09-09T05:55:38;4.32;;;1.65;;
3677;SDS011;1855;50.934;6.958;2022-09-09T05:58:06;5.00;;;1.90;;
3677;SDS011;1855;50.934;6.958;2022-09-09T06:00:34;5.22;;;1.80;;
3677;SDS011;1855;50.934;6.958;2022-09-09T06:03:01;4.03;;;1.65;;
3677;SDS011;1855;50.934;6.958;2022-09-09T06:05:28;4.40;;;1.60;;
3677;SDS011;1855;50.934;6.958;2022-09-09T06:07:55;2.90;;;1.60;;
3677;SDS011;1855;50.934;6.958;2022-09-09T06:10:22;3.30;;;1.30;;
3677;SDS011;1855;50.934;6.958;2022-09-09T06:12:53;2.50;;;1.10;;
3677;SDS011;1855;50.934;6.958;2022-09-09T06:15:20;2.55;;;1.30;;
3677;SDS011;1855;50.934;6.958;2022-09-09T06:17:46;3.38;;;1.80;;
3677;SDS011;1855;50.934;6.958;2022-09-09T06:20:19;5.85;;;1.40;;
3677;SDS011;1855;50.934;6.958;2022-09-09T06:22:47;3.20;;;1.37;;
3677;SDS011;1855;50.934;6.958;2022-09-09T06:25:13;3.40;;;1.70;;
3677;SDS011;1855;50.934;6.958;2022-09-09T06:27:40;7.50;;;2.00;;
3677;SDS011;1855;50.934;6.958;2022-09-09T06:30:09;3.78;;;1.50;;
3677;SDS011;1855;50.934;6.958;2022-09-09T06:32:36;3.60;;;1.40;;
3677;SDS011;1855;50.934;6.958;2022-09-09T06:35:04;3.92;;;1.80;;
3677;SDS011;1855;50.934;6.958;2022-09-09T06:37:32;4.10;;;1.63;;
3677;SDS011;1855;50.934;6.958;2022-09-09T06:39:59;4.27;;;1.70;;
3677;SDS011;1855;50.934;6.958;2022-09-09T06:42:26;4.00;;;1.60;;
3677;SDS011;1855;50.934;6.958;2022-09-09T06:44:53;3.30;;;1.30;;
3677;SDS011;1855;50.934;6.958;2022-09-09T06:47:21;4.55;;;1.55;;
3677;SDS011;1855;50.934;6.958;2022-09-09T06:49:49;4.57;;;1.50;;
3677;SDS011;1855;50.934;6.958;2022-09-09T06:52:16;5.20;;;2.00;;
3677;SDS011;1855;50.934;6.958;2022-09-09T06:54:43;3.60;;;1.70;;
3677;SDS011;1855;50.934;6.958;2022-09-09T06:57:10;3.40;;;1.60;;
3677;SDS011;1855;50.934;6.958;2022-09-09T06:59:37;4.10;;;1.55;;
3677;SDS011;1855;50.934;6.958;2022-09-09T07:02:03;5.10;;;2.05;;
3677;SDS011;1855;50.934;6.958;2022-09-09T07:04:32;5.43;;;1.75;;
3677;SDS011;1855;50.934;6.958;2022-09-09T07:06:59;3.92;;;1.77;;
3677;SDS011;1855;50.934;6.958;2022-09-09T07:09:25;3.80;;;1.40;;
3677;SDS011;1855;50.934;6.958;2022-09-09T07:11:54;3.65;;;1.40;;
3677;SDS011;1855;50.934;6.958;2022-09-09T07:14:24;3.70;;;1.50;;
3677;SDS011;1855;50.934;6.958;2022-09-09T07:16:52;2.85;;;1.30;;
3677;SDS011;1855;50.934;6.958;2022-09-09T07:19:18;3.35;;;1.40;;
3677;SDS011;1855;50.934;6.958;2022-09-09T07:21:46;4.35;;;1.60;;
3677;SDS011;1855;50.934;6.958;2022-09-09T07:24:14;3.03;;;1.20;;
3677;SDS011;1855;50.934;6.958;2022-09-09T07:26:41;2.70;;;1.15;;
3677;SDS011;1855;50.934;6.958;2022-09-09T07:29:09;4.25;;;1.55;;
3677;SDS011;1855;50.934;6.958;2022-09-09T07:31:39;5.90;;;1.20;;
3677;SDS011;1855;50.934;6.958;2022-09-09T07:34:05;3.50;;;1.25;;
3677;SDS011;1855;50.934;6.958;2022-09-09T07:36:33;2.40;;;1.30;;
3677;SDS011;1855;50.934;6.958;2022-09-09T07:39:03;5.00;;;1.70;;
3677;SDS011;1855;50.934;6.958;2022-09-09T07:41:33;3.85;;;1.13;;
3677;SDS011;1855;50.934;6.958;2022-09-09T07:44:04;4.40;;;1.50;;
3677;SDS011;1855;50.934;6.958;2022-09-09T07:46:32;2.97;;;1.20;;
3677;SDS011;1855;50.934;6.958;2022-09-09T07:49:00;3.42;;;1.05;;
3677;SDS011;1855;50.934;6.958;2022-09-09T07:51:28;4.20;;;1.20;;
3677;SDS011;1855;50.934;6.958;2022-09-09T07:53:57;5.85;;;1.33;;
3677;SDS011;1855;50.934;6.958;2022-09-09T07:56:27;3.90;;;1.42;;
3677;SDS011;1855;50.934;6.958;2022-09-09T07:58:55;3.45;;;1.30;;
3677;SDS011;1855;50.934;6.958;2022-09-09T08:01:24;3.40;;;1.30;;
3677;SDS011;1855;50.934;6.958;2022-09-09T08:03:54;4.27;;;1.50;;
3677;SDS011;1855;50.934;6.958;2022-09-09T08:06:24;4.32;;;1.70;;
3677;SDS011;1855;50.934;6.958;2022-09-09T08:08:52;5.13;;;1.40;;
3677;SDS011;1855;50.934;6.958;2022-09-09T08:11:20;4.05;;;1.60;;
3677;SDS011;1855;50.934;6.958;2022-09-09T08:13:50;6.03;;;1.40;;
3677;SDS011;1855;50.934;6.958;2022-09-09T08:16:18;4.25;;;1.60;;
3677;SDS011;1855;50.934;6.958;2022-09-09T08:18:47;2.53;;;1.35;;
3677;SDS011;1855;50.934;6.958;2022-09-09T08:21:16;5.57;;;1.58;;
3677;SDS011;1855;50.934;6.958;2022-09-09T08:23:44;4.40;;;2.03;;
3677;SDS011;1855;50.934;6.958;2022-09-09T08:26:13;3.38;;;1.38;;
3677;SDS011;1855;50.934;6.958;2022-09-09T08:28:41;3.05;;;1.20;;
3677;SDS011;1855;50.934;6.958;2022-09-09T08:31:11;4.28;;;1.55;;
3677;SDS011;1855;50.934;6.958;2022-09-09T08:33:40;4.10;;;1.40;;
3677;SDS011;1855;50.934;6.958;2022-09-09T08:36:11;3.87;;;1.50;;
3677;SDS011;1855;50.934;6.958;2022-09-09T08:38:40;3.30;;;1.30;;
3677;SDS011;1855;50.934;6.958;2022-09-09T08:41:12;3.70;;;1.30;;
3677;SDS011;1855;50.934;6.958;2022-09-09T08:43:51;3.45;;;1.25;;
3677;SDS011;1855;50.934;6.958;2022-09-09T08:46:31;3.78;;;1.13;;
3677;SDS011;1855;50.934;6.958;2022-09-09T08:49:03;3.42;;;1.50;;
3677;SDS011;1855;50.934;6.958;2022-09-09T08:51:42;2.85;;;1.40;;
3677;SDS011;1855;50.934;6.958;2022-09-09T08:54:09;3.53;;;1.30;;
3677;SDS011;1855;50.934;6.958;2022-09-09T08:56:36;3.35;;;1.20;;
3677;SDS011;1855;50.934;6.958;2022-09-09T08:59:03;4.45;;;1.10;;
3677;SDS011;1855;50.934;6.958;2022-09-09T09:01:35;3.00;;;1.38;;
3677;SDS011;1855;50.934;6.958;2022-09-09T09:04:12;4.55;;;1.40;;
3677;SDS011;1855;50.934;6.958;2022-09-09T09:07:01;3.13;;;1.10;;
3677;SDS011;1855;50.934;6.958;2022-09-09T09:09:37;3.70;;;1.10;;
3677;SDS011;1855;50.934;6.958;2022-09-09T09:12:14;3.90;;;1.20;;
3677;SDS011;1855;50.934;6.958;2022-09-09T09:14:42;3.00;;;1.20;;
3677;SDS011;1855;50.934;6.958;2022-09-09T09:17:13;2.60;;;0.90;;
3677;SDS011;1855;50.934;6.958;2022-09-09T09:19:43;2.45;;;0.90;;
3677;SDS011;1855;50.934;6.958;2022-09-09T09:22:14;1.85;;;0.93;;
3677;SDS011;1855;50.934;6.958;2022-09-09T09:24:45;2.45;;;0.90;;
3677;SDS011;1855;50.934;6.958;2022-09-09T09:27:18;1.77;;;1.00;;
3677;SDS011;1855;50.934;6.958;2022-09-09T09:29:53;2.45;;;1.20;;
3677;SDS011;1855;50.934;6.958;2022-09-09T09:32:24;3.00;;;1.10;;
3677;SDS011;1855;50.934;6.958;2022-09-09T09:34:56;2.17;;;0.90;;
3677;SDS011;1855;50.934;6.958;2022-09-09T09:37:26;2.70;;;1.20;;
3677;SDS011;1855;50.934;6.958;2022-09-09T09:39:55;3.65;;;0.80;;
3677;SDS011;1855;50.934;6.958;2022-09-09T09:42:22;3.03;;;1.10;;
3677;SDS011;1855;50.934;6.958;2022-09-09T09:44:49;4.35;;;1.13;;
3677;SDS011;1855;50.934;6.958;2022-09-09T09:47:17;2.10;;;0.90;;
3677;SDS011;1855;50.934;6.958;2022-09-09T09:49:52;3.08;;;1.40;;
3677;SDS011;1855;50.934;6.958;2022-09-09T09:52:21;2.63;;;1.10;;
3677;SDS011;1855;50.934;6.958;2022-09-09T09:54:49;2.72;;;1.10;;
3677;SDS011;1855;50.934;6.958;2022-09-09T09:57:17;2.97;;;1.20;;
3677;SDS011;1855;50.934;6.958;2022-09-09T09:59:59;2.63;;;1.10;;
3677;SDS011;1855;50.934;6.958;2022-09-09T10:02:31;4.05;;;0.88;;
3677;SDS011;1855;50.934;6.958;2022-09-09T10:05:12;2.58;;;1.00;;
3677;SDS011;1855;50.934;6.958;2022-09-09T10:07:40;2.65;;;0.80;;
3677;SDS011;1855;50.934;6.958;2022-09-09T10:10:12;2.40;;;1.05;;
3677;SDS011;1855;50.934;6.958;2022-09-09T10:12:48;2.50;;;0.82;;
3677;SDS011;1855;50.934;6.958;2022-09-09T10:15:30;2.50;;;0.80;;
3677;SDS011;1855;50.934;6.958;2022-09-09T10:18:06;2.65;;;0.73;;
3677;SDS011;1855;50.934;6.958;2022-09-09T10:20:45;2.85;;;1.00;;
3677;SDS011;1855;50.934;6.958;2022-09-09T10:23:24;1.83;;;1.00;;
3677;SDS011;1855;50.934;6.958;2022-09-09T10:26:07;2.72;;;0.80;;
3677;SDS011;1855;50.934;6.958;2022-09-09T10:28:54;2.40;;;0.75;;
3677;SDS011;1855;50.934;6.958;2022-09-09T10:31:33;2.03;;;0.80;;
3677;SDS011;1855;50.934;6.958;2022-09-09T10:34:11;1.50;;;0.70;;
3677;SDS011;1855;50.934;6.958;2022-09-09T10:36:48;1.80;;;0.90;;
3677;SDS011;1855;50.934;6.958;2022-09-09T10:39:18;1.98;;;0.70;;
3677;SDS011;1855;50.934;6.958;2022-09-09T10:42:00;3.25;;;0.90;;
3677;SDS011;1855;50.934;6.958;2022-09-09T10:44:37;3.42;;;1.00;;
3677;SDS011;1855;50.934;6.958;2022-09-09T10:47:25;2.50;;;0.93;;
3677;SDS011;1855;50.934;6.958;2022-09-09T10:50:18;2.78;;;0.80;;
3677;SDS011;1855;50.934;6.958;2022-09-09T10:53:11;2.50;;;0.80;;
3677;SDS011;1855;50.934;6.958;2022-09-09T10:55:48;2.55;;;0.80;;
3677;SDS011;1855;50.934;6.958;2022-09-09T10:58:19;2.80;;;0.88;;
3677;SDS011;1855;50.934;6.958;2022-09-09T11:00:50;2.80;;;0.80;;
3677;SDS011;1855;50.934;6.958;2022-09-09T11:03:20;1.55;;;0.80;;
3677;SDS011;1855;50.934;6.958;2022-09-09T11:05:51;2.17;;;0.80;;
3677;SDS011;1855;50.934;6.958;2022-09-09T11:08:24;3.42;;;0.65;;
3677;SDS011;1855;50.934;6.958;2022-09-09T11:10:54;2.05;;;0.90;;
3677;SDS011;1855;50.934;6.958;2022-09-09T11:13:26;2.92;;;1.00;;
3677;SDS011;1855;50.934;6.958;2022-09-09T11:16:00;2.22;;;0.80;;
3677;SDS011;1855;50.934;6.958;2022-09-09T11:18:36;3.37;;;0.80;;
3677;SDS011;1855;50.934;6.958;2022-09-09T11:21:09;3.20;;;1.00;;
3677;SDS011;1855;50.934;6.958;2022-09-09T11:23:44;2.25;;;0.90;;
3677;SDS011;1855;50.934;6.958;2022-09-09T11:26:16;3.00;;;0.90;;
3677;SDS011;1855;50.934;6.958;2022-09-09T11:28:53;2.27;;;0.90;;
3677;SDS011;1855;50.934;6.958;2022-09-09T11:31:35;1.88;;;0.85;;
3677;SDS011;1855;50.934;6.958;2022-09-09T11:34:16;2.70;;;1.10;;
3677;SDS011;1855;50.934;6.958;2022-09-09T11:36:56;2.00;;;0.77;;
3677;SDS011;1855;50.934;6.958;2022-09-09T11:39:56;1.70;;;0.88;;
3677;SDS011;1855;50.934;6.958;2022-09-09T11:42:46;2.10;;;0.80;;
3677;SDS011;1855;50.934;6.958;2022-09-09T11:45:22;2.53;;;0.90;;
3677;SDS011;1855;50.934;6.958;2022-09-09T11:47:53;2.60;;;0.80;;
3677;SDS011;1855;50.934;6.958;2022-09-09T11:50:31;4.72;;;1.30;;
3677;SDS011;1855;50.934;6.958;2022-09-09T11:53:05;4.13;;;0.88;;
3677;SDS011;1855;50.934;6.958;2022-09-09T11:56:06;1.55;;;0.80;;
3677;SDS011;1855;50.934;6.958;2022-09-09T11:58:39;2.27;;;0.70;;
3677;SDS011;1855;50.934;6.958;2022-09-09T12:01:28;2.40;;;0.80;;
3677;SDS011;1855;50.934;6.958;2022-09-09T12:04:26;2.05;;;0.90;;
3677;SDS011;1855;50.934;6.958;2022-09-09T12:06:57;2.85;;;1.00;;
3677;SDS011;1855;50.934;6.958;2022-09-09T12:09:29;2.23;;;0.80;;
3677;SDS011;1855;50.934;6.958;2022-09-09T12:12:22;3.38;;;1.10;;
3677;SDS011;1855;50.934;6.958;2022-09-09T12:14:55;2.10;;;0.90;;
3677;SDS011;1855;50.934;6.958;2022-09-09T12:17:25;1.80;;;0.80;;
3677;SDS011;1855;50.934;6.958;2022-09-09T12:20:00;1.80;;;0.80;;
3677;SDS011;1855;50.934;6.958;2022-09-09T12:22:35;2.53;;;0.90;;
3677;SDS011;1855;50.934;6.958;2022-09-09T12:25:12;3.03;;;1.00;;
3677;SDS011;1855;50.934;6.958;2022-09-09T12:27:54;2.57;;;0.80;;
3677;SDS011;1855;50.934;6.958;2022-09-09T12:30:29;2.88;;;0.80;;
3677;SDS011;1855;50.934;6.958;2022-09-09T12:33:00;1.65;;;0.70;;
3677;SDS011;1855;50.934;6.958;2022-09-09T12:35:28;2.17;;;0.60;;
3677;SDS011;1855;50.934;6.958;2022-09-09T12:37:57;2.75;;;0.80;;
3677;SDS011;1855;50.934;6.958;2022-09-09T12:40:28;2.47;;;0.70;;
3677;SDS011;1855;50.934;6.958;2022-09-09T12:42:57;2.45;;;0.90;;
3677;SDS011;1855;50.934;6.958;2022-09-09T12:45:27;2.00;;;0.90;;
3677;SDS011;1855;50.934;6.958;2022-09-09T12:47:57;2.10;;;0.85;;
3677;SDS011;1855;50.934;6.958;2022-09-09T12:50:27;3.55;;;1.08;;
3677;SDS011;1855;50.934;6.958;2022-09-09T12:52:57;2.92;;;0.80;;
3677;SDS011;1855;50.934;6.958;2022-09-09T12:55:27;2.50;;;1.20;;
3677;SDS011;1855;50.934;6.958;2022-09-09T12:57:57;2.10;;;0.80;;
3677;SDS011;1855;50.934;6.958;2022-09-09T13:00:25;2.20;;;0.90;;
3677;SDS011;1855;50.934;6.958;2022-09-09T13:02:53;2.50;;;1.00;;
3677;SDS011;1855;50.934;6.958;2022-09-09T13:05:22;2.53;;;0.90;;
3677;SDS011;1855;50.934;6.958;2022-09-09T13:07:50;2.20;;;0.70;;
3677;SDS011;1855;50.934;6.958;2022-09-09T13:10:22;3.45;;;1.10;;
3677;SDS011;1855;50.934;6.958;2022-09-09T13:12:52;1.90;;;0.80;;
3677;SDS011;1855;50.934;6.958;2022-09-09T13:15:22;2.65;;;0.90;;
3677;SDS011;1855;50.934;6.958;2022-09-09T13:17:53;3.70;;;1.30;;
3677;SDS011;1855;50.934;6.958;2022-09-09T13:20:22;2.40;;;1.30;;
3677;SDS011;1855;50.934;6.958;2022-09-09T13:22:50;1.73;;;0.80;;
3677;SDS011;1855;50.934;6.958;2022-09-09T13:25:20;1.58;;;0.70;;
3677;SDS011;1855;50.934;6.958;2022-09-09T13:27:54;1.00;;;0.40;;
3677;SDS011;1855;50.934;6.958;2022-09-09T13:30:29;2.10;;;0.63;;
3677;SDS011;1855;50.934;6.958;2022-09-09T13:33:05;1.50;;;0.82;;
3677;SDS011;1855;50.934;6.958;2022-09-09T13:35:48;1.73;;;0.70;;
3677;SDS011;1855;50.934;6.958;2022-09-09T13:38:16;1.60;;;0.50;;
3677;SDS011;1855;50.934;6.958;2022-09-09T13:40:53;1.17;;;0.50;;
3677;SDS011;1855;50.934;6.958;2022-09-09T13:43:23;1.55;;;0.50;;
3677;SDS011;1855;50.934;6.958;2022-09-09T13:45:56;1.73;;;0.60;;
3677;SDS011;1855;50.934;6.958;2022-09-09T13:48:25;2.10;;;0.57;;
3677;SDS011;1855;50.934;6.958;2022-09-09T13:50:56;1.10;;;0.50;;
3677;SDS011;1855;50.934;6.958;2022-09-09T13:53:25;1.58;;;0.60;;
3677;SDS011;1855;50.934;6.958;2022-09-09T13:55:52;1.35;;;0.60;;
3677;SDS011;1855;50.934;6.958;2022-09-09T13:58:19;1.40;;;0.50;;
3677;SDS011;1855;50.934;6.958;2022-09-09T14:00:47;1.10;;;0.60;;
3677;SDS011;1855;50.934;6.958;2022-09-09T14:03:16;0.98;;;0.60;;
3677;SDS011;1855;50.934;6.958;2022-09-09T14:05:43;1.27;;;0.50;;
3677;SDS011;1855;50.934;6.958;2022-09-09T14:08:14;1.30;;;0.70;;
3677;SDS011;1855;50.934;6.958;2022-09-09T14:10:45;1.92;;;0.70;;
3677;SDS011;1855;50.934;6.958;2022-09-09T14:13:12;2.30;;;0.60;;
3677;SDS011;1855;50.934;6.958;2022-09-09T14:15:39;1.70;;;0.60;;
3677;SDS011;1855;50.934;6.958;2022-09-09T14:18:08;0.93;;;0.50;;
3677;SDS011;1855;50.934;6.958;2022-09-09T14:20:38;2.15;;;0.82;;
3677;SDS011;1855;50.934;6.958;2022-09-09T14:23:05;1.20;;;0.70;;
3677;SDS011;1855;50.934;6.958;2022-09-09T14:25:35;1.70;;;0.67;;
3677;SDS011;1855;50.934;6.958;2022-09-09T14:28:02;1.70;;;0.60;;
3677;SDS011;1855;50.934;6.958;2022-09-09T14:30:29;1.50;;;0.60;;
3677;SDS011;1855;50.934;6.958;2022-09-09T14:32:56;1.77;;;0.60;;
3677;SDS011;1855;50.934;6.958;2022-09-09T14:35:22;1.73;;;0.80;;
3677;SDS011;1855;50.934;6.958;2022-09-09T14:37:51;2.05;;;0.60;;
3677;SDS011;1855;50.934;6.958;2022-09-09T14:40:17;3.60;;;1.60;;
3677;SDS011;1855;50.934;6.958;2022-09-09T14:42:44;5.88;;;1.80;;
3677;SDS011;1855;50.934;6.958;2022-09-09T14:45:11;2.33;;;1.10;;
3677;SDS011;1855;50.934;6.958;2022-09-09T14:47:38;3.25;;;1.63;;
3677;SDS011;1855;50.934;6.958;2022-09-09T14:50:05;3.03;;;1.50;;
3677;SDS011;1855;50.934;6.958;2022-09-09T14:52:33;3.72;;;1.98;;
3677;SDS011;1855;50.934;6.958;2022-09-09T14:55:01;2.70;;;1.50;;
3677;SDS011;1855;50.934;6.958;2022-09-09T14:57:28;5.05;;;2.85;;
3677;SDS011;1855;50.934;6.958;2022-09-09T14:59:55;3.58;;;1.65;;
3677;SDS011;1855;50.934;6.958;2022-09-09T15:02:22;4.35;;;1.65;;
3677;SDS011;1855;50.934;6.958;2022-09-09T15:04:48;3.38;;;1.90;;
3677;SDS011;1855;50.934;6.958;2022-09-09T15:07:16;3.55;;;1.30;;
3677;SDS011;1855;50.934;6.958;2022-09-09T15:09:44;3.13;;;1.70;;
3677;SDS011;1855;50.934;6.958;2022-09-09T15:12:14;3.15;;;1.60;;
3677;SDS011;1855;50.934;6.958;2022-09-09T15:14:40;2.25;;;1.20;;
3677;SDS011;1855;50.934;6.958;2022-09-09T15:17:07;1.85;;;1.33;;
3677;SDS011;1855;50.934;6.958;2022-09-09T15:19:34;3.15;;;1.40;;
3677;SDS011;1855;50.934;6.958;2022-09-09T15:22:02;3.35;;;1.50;;
3677;SDS011;1855;50.934;6.958;2022-09-09T15:24:30;2.30;;;1.20;;
3677;SDS011;1855;50.934;6.958;2022-09-09T15:26:57;1.90;;;1.20;;
3677;SDS011;1855;50.934;6.958;2022-09-09T15:29:25;2.80;;;1.63;;
3677;SDS011;1855;50.934;6.958;2022-09-09T15:31:53;1.63;;;1.00;;
3677;SDS011;1855;50.934;6.958;2022-09-09T15:34:20;2.00;;;1.40;;
3677;SDS011;1855;50.934;6.958;2022-09-09T15:36:47;1.90;;;1.20;;
3677;SDS011;1855;50.934;6.958;2022-09-09T15:39:15;2.67;;;1.60;;